sensor_id;sensor_type;location;lat;lon;timestamp;P1;durP1;ratioP1;P2;durP2;ratioP2
43990;SDS011;29654;50.784;20.604;2023-09-18T00:02:17;6.40;;;5.85;;
43990;SDS011;29654;50.784;20.604;2023-09-18T00:07:20;6.93;;;6.43;;
43990;SDS011;29654;50.784;20.604;2023-09-18T00:12:23;6.55;;;6.05;;
43990;SDS011;29654;50.784;20.604;2023-09-18T00:17:26;7.38;;;6.78;;
43990;SDS011;29654;50.784;20.604;2023-09-18T00:22:29;7.25;;;6.65;;
43990;SDS011;29654;50.784;20.604;2023-09-18T00:27:32;7.38;;;6.65;;
43990;SDS011;29654;50.784;20.604;2023-09-18T00:32:37;7.38;;;6.78;;
43990;SDS011;29654;50.784;20.604;2023-09-18T00:37:40;7.32;;;6.70;;
43990;SDS011;29654;50.784;20.604;2023-09-18T00:42:43;7.75;;;7.05;;
43990;SDS011;29654;50.784;20.604;2023-09-18T00:47:47;7.43;;;6.93;;
43990;SDS011;29654;50.784;20.604;2023-09-18T00:52:50;7.72;;;6.93;;
43990;SDS011;29654;50.784;20.604;2023-09-18T00:57:52;7.65;;;6.40;;
43990;SDS011;29654;50.784;20.604;2023-09-18T01:02:58;7.93;;;7.30;;
43990;SDS011;29654;50.784;20.604;2023-09-18T01:08:02;7.82;;;7.13;;
43990;SDS011;29654;50.784;20.604;2023-09-18T01:13:07;8.38;;;7.68;;
43990;SDS011;29654;50.784;20.604;2023-09-18T01:18:18;7.97;;;7.38;;
43990;SDS011;29654;50.784;20.604;2023-09-18T01:23:22;6.97;;;6.45;;
43990;SDS011;29654;50.784;20.604;2023-09-18T01:28:24;7.38;;;6.78;;
43990;SDS011;29654;50.784;20.604;2023-09-18T01:33:27;6.40;;;5.80;;
43990;SDS011;29654;50.784;20.604;2023-09-18T01:38:32;7.18;;;6.57;;
43990;SDS011;29654;50.784;20.604;2023-09-18T01:43:35;6.53;;;6.03;;
43990;SDS011;29654;50.784;20.604;2023-09-18T01:48:39;6.20;;;5.72;;
43990;SDS011;29654;50.784;20.604;2023-09-18T01:53:50;5.18;;;4.78;;
43990;SDS011;29654;50.784;20.604;2023-09-18T01:58:54;7.38;;;6.78;;
43990;SDS011;29654;50.784;20.604;2023-09-18T02:03:56;4.25;;;3.95;;
43990;SDS011;29654;50.784;20.604;2023-09-18T02:09:00;6.90;;;6.30;;
43990;SDS011;29654;50.784;20.604;2023-09-18T02:14:04;6.65;;;6.05;;
43990;SDS011;29654;50.784;20.604;2023-09-18T02:19:07;7.10;;;6.50;;
43990;SDS011;29654;50.784;20.604;2023-09-18T02:24:12;5.32;;;4.93;;
43990;SDS011;29654;50.784;20.604;2023-09-18T02:29:15;7.20;;;6.60;;
43990;SDS011;29654;50.784;20.604;2023-09-18T02:34:17;6.70;;;6.10;;
43990;SDS011;29654;50.784;20.604;2023-09-18T02:39:21;7.40;;;6.80;;
43990;SDS011;29654;50.784;20.604;2023-09-18T02:44:24;5.25;;;4.93;;
43990;SDS011;29654;50.784;20.604;2023-09-18T02:49:27;7.10;;;6.50;;
43990;SDS011;29654;50.784;20.604;2023-09-18T02:54:31;7.88;;;7.10;;
43990;SDS011;29654;50.784;20.604;2023-09-18T02:59:34;9.00;;;8.20;;
43990;SDS011;29654;50.784;20.604;2023-09-18T03:04:37;7.80;;;7.20;;
43990;SDS011;29654;50.784;20.604;2023-09-18T03:09:41;8.70;;;8.00;;
43990;SDS011;29654;50.784;20.604;2023-09-18T03:14:44;8.05;;;7.35;;
43990;SDS011;29654;50.784;20.604;2023-09-18T03:19:47;7.35;;;6.72;;
43990;SDS011;29654;50.784;20.604;2023-09-18T03:24:52;7.85;;;7.25;;
43990;SDS011;29654;50.784;20.604;2023-09-18T03:29:54;7.57;;;6.95;;
43990;SDS011;29654;50.784;20.604;2023-09-18T03:34:57;7.30;;;6.70;;
43990;SDS011;29654;50.784;20.604;2023-09-18T03:40:01;7.85;;;7.13;;
43990;SDS011;29654;50.784;20.604;2023-09-18T03:45:05;7.90;;;7.28;;
43990;SDS011;29654;50.784;20.604;2023-09-18T03:50:10;7.88;;;7.20;;
43990;SDS011;29654;50.784;20.604;2023-09-18T03:55:15;11.32;;;10.07;;
43990;SDS011;29654;50.784;20.604;2023-09-18T04:00:18;12.38;;;10.60;;
43990;SDS011;29654;50.784;20.604;2023-09-18T04:05:22;17.83;;;10.32;;
43990;SDS011;29654;50.784;20.604;2023-09-18T04:10:27;13.68;;;10.63;;
43990;SDS011;29654;50.784;20.604;2023-09-18T04:15:29;14.45;;;9.65;;
43990;SDS011;29654;50.784;20.604;2023-09-18T04:20:32;13.00;;;10.43;;
43990;SDS011;29654;50.784;20.604;2023-09-18T04:25:37;10.10;;;9.20;;
43990;SDS011;29654;50.784;20.604;2023-09-18T04:30:40;11.73;;;10.63;;
43990;SDS011;29654;50.784;20.604;2023-09-18T04:35:43;10.07;;;9.20;;
43990;SDS011;29654;50.784;20.604;2023-09-18T04:40:48;11.63;;;8.75;;
43990;SDS011;29654;50.784;20.604;2023-09-18T04:45:51;14.75;;;8.32;;
43990;SDS011;29654;50.784;20.604;2023-09-18T04:50:54;18.80;;;9.00;;
43990;SDS011;29654;50.784;20.604;2023-09-18T04:55:58;10.82;;;7.07;;
43990;SDS011;29654;50.784;20.604;2023-09-18T05:01:01;9.60;;;7.50;;
43990;SDS011;29654;50.784;20.604;2023-09-18T05:06:05;7.65;;;6.78;;
43990;SDS011;29654;50.784;20.604;2023-09-18T05:11:09;8.23;;;7.47;;
43990;SDS011;29654;50.784;20.604;2023-09-18T05:16:12;7.85;;;7.25;;
43990;SDS011;29654;50.784;20.604;2023-09-18T05:21:15;7.72;;;7.13;;
43990;SDS011;29654;50.784;20.604;2023-09-18T05:26:24;7.65;;;7.05;;
43990;SDS011;29654;50.784;20.604;2023-09-18T05:31:27;8.38;;;7.60;;
43990;SDS011;29654;50.784;20.604;2023-09-18T05:36:30;8.00;;;7.32;;
43990;SDS011;29654;50.784;20.604;2023-09-18T05:41:35;8.40;;;7.70;;
43990;SDS011;29654;50.784;20.604;2023-09-18T05:46:37;7.85;;;7.22;;
43990;SDS011;29654;50.784;20.604;2023-09-18T05:51:40;8.60;;;7.82;;
43990;SDS011;29654;50.784;20.604;2023-09-18T05:56:45;8.82;;;8.00;;
43990;SDS011;29654;50.784;20.604;2023-09-18T06:01:48;6.65;;;6.13;;
43990;SDS011;29654;50.784;20.604;2023-09-18T06:06:51;7.68;;;7.07;;
43990;SDS011;29654;50.784;20.604;2023-09-18T06:11:55;8.30;;;7.70;;
43990;SDS011;29654;50.784;20.604;2023-09-18T06:16:58;9.35;;;8.48;;
43990;SDS011;29654;50.784;20.604;2023-09-18T06:22:01;8.13;;;7.43;;
43990;SDS011;29654;50.784;20.604;2023-09-18T06:27:05;8.45;;;7.82;;
43990;SDS011;29654;50.784;20.604;2023-09-18T06:32:08;8.38;;;7.78;;
43990;SDS011;29654;50.784;20.604;2023-09-18T06:37:11;8.15;;;7.45;;
43990;SDS011;29654;50.784;20.604;2023-09-18T06:42:15;8.90;;;8.25;;
43990;SDS011;29654;50.784;20.604;2023-09-18T06:47:17;8.75;;;8.05;;
43990;SDS011;29654;50.784;20.604;2023-09-18T06:52:20;8.40;;;7.70;;
43990;SDS011;29654;50.784;20.604;2023-09-18T06:57:24;9.07;;;8.27;;
43990;SDS011;29654;50.784;20.604;2023-09-18T07:02:28;9.20;;;8.40;;
43990;SDS011;29654;50.784;20.604;2023-09-18T07:07:30;8.90;;;8.20;;
43990;SDS011;29654;50.784;20.604;2023-09-18T07:12:34;9.02;;;8.35;;
43990;SDS011;29654;50.784;20.604;2023-09-18T07:17:37;7.85;;;7.32;;
43990;SDS011;29654;50.784;20.604;2023-09-18T07:22:44;8.43;;;7.65;;
43990;SDS011;29654;50.784;20.604;2023-09-18T07:27:50;8.52;;;7.82;;
43990;SDS011;29654;50.784;20.604;2023-09-18T07:32:53;8.00;;;7.40;;
43990;SDS011;29654;50.784;20.604;2023-09-18T07:37:58;8.50;;;7.80;;
43990;SDS011;29654;50.784;20.604;2023-09-18T07:43:02;8.35;;;7.72;;
43990;SDS011;29654;50.784;20.604;2023-09-18T07:48:05;8.32;;;7.65;;
43990;SDS011;29654;50.784;20.604;2023-09-18T07:53:07;8.15;;;7.65;;
43990;SDS011;29654;50.784;20.604;2023-09-18T07:58:11;8.18;;;7.45;;
43990;SDS011;29654;50.784;20.604;2023-09-18T08:03:15;7.10;;;6.40;;
43990;SDS011;29654;50.784;20.604;2023-09-18T08:08:18;8.32;;;7.55;;
43990;SDS011;29654;50.784;20.604;2023-09-18T08:13:23;6.97;;;6.47;;
43990;SDS011;29654;50.784;20.604;2023-09-18T08:18:26;8.73;;;7.93;;
43990;SDS011;29654;50.784;20.604;2023-09-18T08:23:29;7.85;;;7.25;;
43990;SDS011;29654;50.784;20.604;2023-09-18T08:28:34;8.20;;;7.45;;
43990;SDS011;29654;50.784;20.604;2023-09-18T08:33:43;7.05;;;6.55;;
43990;SDS011;29654;50.784;20.604;2023-09-18T08:38:46;7.47;;;6.85;;
43990;SDS011;29654;50.784;20.604;2023-09-18T08:43:50;8.07;;;7.43;;
43990;SDS011;29654;50.784;20.604;2023-09-18T08:48:54;7.65;;;7.05;;
43990;SDS011;29654;50.784;20.604;2023-09-18T08:53:59;7.78;;;7.15;;
43990;SDS011;29654;50.784;20.604;2023-09-18T08:59:05;8.57;;;7.78;;
43990;SDS011;29654;50.784;20.604;2023-09-18T09:04:10;8.23;;;7.63;;
43990;SDS011;29654;50.784;20.604;2023-09-18T09:09:16;8.90;;;8.10;;
43990;SDS011;29654;50.784;20.604;2023-09-18T09:14:20;8.35;;;7.65;;
43990;SDS011;29654;50.784;20.604;2023-09-18T09:19:29;9.05;;;8.35;;
43990;SDS011;29654;50.784;20.604;2023-09-18T09:24:36;9.48;;;8.27;;
43990;SDS011;29654;50.784;20.604;2023-09-18T09:29:43;8.05;;;7.45;;
43990;SDS011;29654;50.784;20.604;2023-09-18T09:34:59;8.63;;;7.82;;
43990;SDS011;29654;50.784;20.604;2023-09-18T09:40:05;8.55;;;7.90;;
43990;SDS011;29654;50.784;20.604;2023-09-18T09:45:12;8.18;;;7.57;;
43990;SDS011;29654;50.784;20.604;2023-09-18T09:50:16;8.32;;;7.70;;
43990;SDS011;29654;50.784;20.604;2023-09-18T09:55:20;7.40;;;6.90;;
43990;SDS011;29654;50.784;20.604;2023-09-18T10:00:28;8.13;;;7.53;;
43990;SDS011;29654;50.784;20.604;2023-09-18T10:05:37;7.22;;;6.70;;
43990;SDS011;29654;50.784;20.604;2023-09-18T10:10:43;8.10;;;7.30;;
43990;SDS011;29654;50.784;20.604;2023-09-18T10:15:51;7.38;;;6.82;;
43990;SDS011;29654;50.784;20.604;2023-09-18T10:20:58;7.68;;;7.07;;
43990;SDS011;29654;50.784;20.604;2023-09-18T10:26:15;7.53;;;6.93;;
43990;SDS011;29654;50.784;20.604;2023-09-18T10:31:27;7.65;;;7.05;;
43990;SDS011;29654;50.784;20.604;2023-09-18T10:36:31;8.18;;;7.45;;
43990;SDS011;29654;50.784;20.604;2023-09-18T10:41:36;7.75;;;7.15;;
43990;SDS011;29654;50.784;20.604;2023-09-18T10:46:43;7.00;;;6.35;;
43990;SDS011;29654;50.784;20.604;2023-09-18T10:51:47;7.25;;;6.65;;
43990;SDS011;29654;50.784;20.604;2023-09-18T10:57:01;7.20;;;6.70;;
43990;SDS011;29654;50.784;20.604;2023-09-18T11:02:07;7.80;;;7.20;;
43990;SDS011;29654;50.784;20.604;2023-09-18T11:07:19;7.75;;;7.20;;
43990;SDS011;29654;50.784;20.604;2023-09-18T11:12:23;7.90;;;7.30;;
43990;SDS011;29654;50.784;20.604;2023-09-18T11:17:54;8.40;;;7.80;;
43990;SDS011;29654;50.784;20.604;2023-09-18T11:23:09;7.97;;;7.38;;
43990;SDS011;29654;50.784;20.604;2023-09-18T11:28:22;8.38;;;7.68;;
43990;SDS011;29654;50.784;20.604;2023-09-18T11:33:32;7.38;;;6.88;;
43990;SDS011;29654;50.784;20.604;2023-09-18T11:38:47;8.30;;;7.47;;
43990;SDS011;29654;50.784;20.604;2023-09-18T11:49:38;7.50;;;6.90;;
43990;SDS011;29654;50.784;20.604;2023-09-18T11:54:50;7.03;;;6.53;;
43990;SDS011;29654;50.784;20.604;2023-09-18T11:59:54;8.10;;;7.40;;
43990;SDS011;29654;50.784;20.604;2023-09-18T12:05:13;7.10;;;6.55;;
43990;SDS011;29654;50.784;20.604;2023-09-18T12:10:19;7.10;;;6.55;;
43990;SDS011;29654;50.784;20.604;2023-09-18T12:15:22;7.18;;;6.68;;
43990;SDS011;29654;50.784;20.604;2023-09-18T12:20:27;7.03;;;6.53;;
43990;SDS011;29654;50.784;20.604;2023-09-18T12:25:29;7.13;;;6.63;;
43990;SDS011;29654;50.784;20.604;2023-09-18T12:30:32;7.43;;;6.80;;
43990;SDS011;29654;50.784;20.604;2023-09-18T12:35:37;7.18;;;6.57;;
43990;SDS011;29654;50.784;20.604;2023-09-18T12:40:42;7.28;;;6.65;;
43990;SDS011;29654;50.784;20.604;2023-09-18T12:45:46;7.53;;;6.93;;
43990;SDS011;29654;50.784;20.604;2023-09-18T12:50:53;7.22;;;6.68;;
43990;SDS011;29654;50.784;20.604;2023-09-18T12:56:04;7.05;;;6.55;;
43990;SDS011;29654;50.784;20.604;2023-09-18T13:01:08;6.55;;;5.95;;
43990;SDS011;29654;50.784;20.604;2023-09-18T13:06:15;6.22;;;5.78;;
43990;SDS011;29654;50.784;20.604;2023-09-18T13:11:21;6.88;;;6.15;;
43990;SDS011;29654;50.784;20.604;2023-09-18T13:16:23;6.13;;;5.57;;
43990;SDS011;29654;50.784;20.604;2023-09-18T13:21:27;6.55;;;6.05;;
43990;SDS011;29654;50.784;20.604;2023-09-18T13:26:30;5.82;;;5.43;;
43990;SDS011;29654;50.784;20.604;2023-09-18T13:31:33;6.20;;;5.70;;
43990;SDS011;29654;50.784;20.604;2023-09-18T13:36:37;5.13;;;4.65;;
43990;SDS011;29654;50.784;20.604;2023-09-18T13:41:40;4.97;;;4.57;;
43990;SDS011;29654;50.784;20.604;2023-09-18T13:46:42;5.05;;;4.72;;
43990;SDS011;29654;50.784;20.604;2023-09-18T13:51:46;4.82;;;4.43;;
43990;SDS011;29654;50.784;20.604;2023-09-18T13:56:50;4.97;;;4.63;;
43990;SDS011;29654;50.784;20.604;2023-09-18T14:01:55;5.03;;;4.63;;
43990;SDS011;29654;50.784;20.604;2023-09-18T14:06:59;4.78;;;4.47;;
43990;SDS011;29654;50.784;20.604;2023-09-18T14:12:03;5.25;;;4.38;;
43990;SDS011;29654;50.784;20.604;2023-09-18T14:17:07;5.03;;;4.53;;
43990;SDS011;29654;50.784;20.604;2023-09-18T14:22:11;5.18;;;4.78;;
43990;SDS011;29654;50.784;20.604;2023-09-18T14:27:14;5.05;;;4.57;;
43990;SDS011;29654;50.784;20.604;2023-09-18T14:32:17;5.25;;;4.75;;
43990;SDS011;29654;50.784;20.604;2023-09-18T14:37:21;5.65;;;5.15;;
43990;SDS011;29654;50.784;20.604;2023-09-18T14:42:23;5.38;;;4.88;;
43990;SDS011;29654;50.784;20.604;2023-09-18T14:47:26;5.43;;;5.03;;
43990;SDS011;29654;50.784;20.604;2023-09-18T14:52:30;6.32;;;5.53;;
43990;SDS011;29654;50.784;20.604;2023-09-18T14:57:33;6.45;;;5.25;;
43990;SDS011;29654;50.784;20.604;2023-09-18T15:02:36;5.90;;;5.50;;
43990;SDS011;29654;50.784;20.604;2023-09-18T15:07:40;6.03;;;5.28;;
43990;SDS011;29654;50.784;20.604;2023-09-18T15:12:42;5.72;;;5.25;;
43990;SDS011;29654;50.784;20.604;2023-09-18T15:17:45;6.15;;;5.30;;
43990;SDS011;29654;50.784;20.604;2023-09-18T15:22:49;5.43;;;5.03;;
43990;SDS011;29654;50.784;20.604;2023-09-18T15:27:52;5.13;;;4.72;;
43990;SDS011;29654;50.784;20.604;2023-09-18T15:32:55;5.82;;;5.43;;
43990;SDS011;29654;50.784;20.604;2023-09-18T15:37:59;5.85;;;5.35;;
43990;SDS011;29654;50.784;20.604;2023-09-18T15:43:01;5.40;;;5.00;;
43990;SDS011;29654;50.784;20.604;2023-09-18T15:48:23;6.28;;;5.78;;
43990;SDS011;29654;50.784;20.604;2023-09-18T15:53:29;6.38;;;5.85;;
43990;SDS011;29654;50.784;20.604;2023-09-18T15:58:31;7.03;;;6.18;;
43990;SDS011;29654;50.784;20.604;2023-09-18T16:03:35;6.15;;;5.55;;
43990;SDS011;29654;50.784;20.604;2023-09-18T16:08:41;6.25;;;5.75;;
43990;SDS011;29654;50.784;20.604;2023-09-18T16:13:44;5.93;;;5.40;;
43990;SDS011;29654;50.784;20.604;2023-09-18T16:18:46;5.78;;;5.25;;
43990;SDS011;29654;50.784;20.604;2023-09-18T16:23:51;5.30;;;4.90;;
43990;SDS011;29654;50.784;20.604;2023-09-18T16:28:54;6.05;;;5.55;;
43990;SDS011;29654;50.784;20.604;2023-09-18T16:33:58;5.80;;;5.30;;
43990;SDS011;29654;50.784;20.604;2023-09-18T16:39:03;6.97;;;6.28;;
43990;SDS011;29654;50.784;20.604;2023-09-18T16:44:06;6.40;;;5.82;;
43990;SDS011;29654;50.784;20.604;2023-09-18T16:49:09;5.97;;;5.47;;
43990;SDS011;29654;50.784;20.604;2023-09-18T16:54:15;6.00;;;5.40;;
43990;SDS011;29654;50.784;20.604;2023-09-18T16:59:21;5.95;;;5.32;;
43990;SDS011;29654;50.784;20.604;2023-09-18T17:04:27;6.13;;;5.63;;
43990;SDS011;29654;50.784;20.604;2023-09-18T17:09:31;7.10;;;6.18;;
43990;SDS011;29654;50.784;20.604;2023-09-18T17:14:33;6.32;;;5.72;;
43990;SDS011;29654;50.784;20.604;2023-09-18T17:19:37;7.10;;;6.40;;
43990;SDS011;29654;50.784;20.604;2023-09-18T17:24:41;7.47;;;6.70;;
43990;SDS011;29654;50.784;20.604;2023-09-18T17:29:43;7.10;;;6.45;;
43990;SDS011;29654;50.784;20.604;2023-09-18T17:34:46;6.47;;;5.95;;
43990;SDS011;29654;50.784;20.604;2023-09-18T17:39:51;6.78;;;6.18;;
43990;SDS011;29654;50.784;20.604;2023-09-18T17:44:54;6.88;;;6.30;;
43990;SDS011;29654;50.784;20.604;2023-09-18T17:49:57;7.65;;;6.80;;
43990;SDS011;29654;50.784;20.604;2023-09-18T17:55:01;6.68;;;6.07;;
43990;SDS011;29654;50.784;20.604;2023-09-18T18:00:06;7.15;;;6.55;;
43990;SDS011;29654;50.784;20.604;2023-09-18T18:05:13;6.70;;;6.10;;
43990;SDS011;29654;50.784;20.604;2023-09-18T18:10:19;7.18;;;6.47;;
43990;SDS011;29654;50.784;20.604;2023-09-18T18:15:22;7.15;;;6.10;;
43990;SDS011;29654;50.784;20.604;2023-09-18T18:20:24;7.07;;;6.47;;
43990;SDS011;29654;50.784;20.604;2023-09-18T18:25:29;6.93;;;6.32;;
43990;SDS011;29654;50.784;20.604;2023-09-18T18:30:33;7.68;;;6.95;;
43990;SDS011;29654;50.784;20.604;2023-09-18T18:35:37;7.70;;;6.90;;
43990;SDS011;29654;50.784;20.604;2023-09-18T18:40:41;7.55;;;6.40;;
43990;SDS011;29654;50.784;20.604;2023-09-18T18:45:50;6.97;;;6.38;;
43990;SDS011;29654;50.784;20.604;2023-09-18T18:50:59;6.95;;;6.35;;
43990;SDS011;29654;50.784;20.604;2023-09-18T18:56:04;7.95;;;7.25;;
43990;SDS011;29654;50.784;20.604;2023-09-18T19:01:07;7.43;;;6.72;;
43990;SDS011;29654;50.784;20.604;2023-09-18T19:06:10;7.30;;;6.65;;
43990;SDS011;29654;50.784;20.604;2023-09-18T19:11:14;8.07;;;7.28;;
43990;SDS011;29654;50.784;20.604;2023-09-18T19:16:17;7.93;;;7.15;;
43990;SDS011;29654;50.784;20.604;2023-09-18T19:21:19;7.10;;;6.55;;
43990;SDS011;29654;50.784;20.604;2023-09-18T19:26:23;9.55;;;6.50;;
43990;SDS011;29654;50.784;20.604;2023-09-18T19:31:26;7.63;;;6.93;;
43990;SDS011;29654;50.784;20.604;2023-09-18T19:36:29;7.43;;;6.75;;
43990;SDS011;29654;50.784;20.604;2023-09-18T19:41:33;7.53;;;6.90;;
43990;SDS011;29654;50.784;20.604;2023-09-18T19:46:37;7.60;;;6.97;;
43990;SDS011;29654;50.784;20.604;2023-09-18T19:51:40;8.15;;;7.35;;
43990;SDS011;29654;50.784;20.604;2023-09-18T19:56:44;8.40;;;7.63;;
43990;SDS011;29654;50.784;20.604;2023-09-18T20:01:47;7.47;;;6.80;;
43990;SDS011;29654;50.784;20.604;2023-09-18T20:06:49;7.57;;;6.88;;
43990;SDS011;29654;50.784;20.604;2023-09-18T20:11:55;7.38;;;6.68;;
43990;SDS011;29654;50.784;20.604;2023-09-18T20:16:59;8.27;;;7.47;;
43990;SDS011;29654;50.784;20.604;2023-09-18T20:22:02;8.18;;;7.32;;
43990;SDS011;29654;50.784;20.604;2023-09-18T20:27:07;7.68;;;6.97;;
43990;SDS011;29654;50.784;20.604;2023-09-18T20:32:10;8.02;;;7.22;;
43990;SDS011;29654;50.784;20.604;2023-09-18T20:37:13;7.53;;;6.70;;
43990;SDS011;29654;50.784;20.604;2023-09-18T20:42:17;8.52;;;7.07;;
43990;SDS011;29654;50.784;20.604;2023-09-18T20:47:20;7.93;;;7.18;;
43990;SDS011;29654;50.784;20.604;2023-09-18T20:52:23;8.00;;;7.25;;
43990;SDS011;29654;50.784;20.604;2023-09-18T20:57:27;8.07;;;7.03;;
43990;SDS011;29654;50.784;20.604;2023-09-18T21:02:29;8.32;;;7.47;;
43990;SDS011;29654;50.784;20.604;2023-09-18T21:07:32;8.60;;;7.88;;
43990;SDS011;29654;50.784;20.604;2023-09-18T21:12:36;8.02;;;7.15;;
43990;SDS011;29654;50.784;20.604;2023-09-18T21:17:42;7.93;;;7.10;;
43990;SDS011;29654;50.784;20.604;2023-09-18T21:22:46;8.10;;;7.30;;
43990;SDS011;29654;50.784;20.604;2023-09-18T21:27:50;7.72;;;6.88;;
43990;SDS011;29654;50.784;20.604;2023-09-18T21:32:53;7.45;;;6.75;;
43990;SDS011;29654;50.784;20.604;2023-09-18T21:37:57;8.73;;;7.95;;
43990;SDS011;29654;50.784;20.604;2023-09-18T21:43:02;7.75;;;6.95;;
43990;SDS011;29654;50.784;20.604;2023-09-18T21:48:05;7.82;;;7.07;;
43990;SDS011;29654;50.784;20.604;2023-09-18T21:53:08;8.40;;;7.53;;
43990;SDS011;29654;50.784;20.604;2023-09-18T21:58:11;10.00;;;8.27;;
43990;SDS011;29654;50.784;20.604;2023-09-18T22:03:14;8.25;;;7.45;;
43990;SDS011;29654;50.784;20.604;2023-09-18T22:08:17;8.20;;;7.40;;
43990;SDS011;29654;50.784;20.604;2023-09-18T22:13:21;8.93;;;6.95;;
43990;SDS011;29654;50.784;20.604;2023-09-18T22:18:23;7.82;;;7.03;;
43990;SDS011;29654;50.784;20.604;2023-09-18T22:23:26;7.13;;;6.43;;
43990;SDS011;29654;50.784;20.604;2023-09-18T22:28:30;7.57;;;6.88;;
43990;SDS011;29654;50.784;20.604;2023-09-18T22:33:33;7.70;;;7.00;;
43990;SDS011;29654;50.784;20.604;2023-09-18T22:38:38;7.38;;;6.78;;
43990;SDS011;29654;50.784;20.604;2023-09-18T22:55:46;7.13;;;6.43;;
43990;SDS011;29654;50.784;20.604;2023-09-18T23:00:50;8.27;;;7.53;;
43990;SDS011;29654;50.784;20.604;2023-09-18T23:05:53;9.35;;;8.57;;
43990;SDS011;29654;50.784;20.604;2023-09-18T23:10:57;8.80;;;7.90;;
43990;SDS011;29654;50.784;20.604;2023-09-18T23:16:00;6.35;;;5.78;;
43990;SDS011;29654;50.784;20.604;2023-09-18T23:21:03;7.32;;;6.72;;
43990;SDS011;29654;50.784;20.604;2023-09-18T23:26:07;7.70;;;7.00;;
43990;SDS011;29654;50.784;20.604;2023-09-18T23:31:11;8.45;;;7.75;;
43990;SDS011;29654;50.784;20.604;2023-09-18T23:36:16;8.73;;;7.95;;
43990;SDS011;29654;50.784;20.604;2023-09-18T23:41:20;8.23;;;7.43;;
43990;SDS011;29654;50.784;20.604;2023-09-18T23:46:22;8.02;;;7.32;;
43990;SDS011;29654;50.784;20.604;2023-09-18T23:51:25;8.23;;;7.45;;
43990;SDS011;29654;50.784;20.604;2023-09-18T23:56:31;7.95;;;7.25;;
